Lanes Prairie, Missouri
Current Conditions -  °F | °C
As of 3:53 AM on Thursday 29 Jan 2015 (Local Time) from KVIH Reporting Station
Clear Clear  
Wind Chill: 51°   Ceiling: Unl
Heat Index: 51°   Visibility: 10mi
Dew Point: 37°   Wind: 18mph
Humidity: 59%   Direction: 290°WNW
Pressure: 29.85"   Gusts: NA
Location:  38.2601°N, 91.7526°W
Report Text: KVIH 290953Z AUTO 29016KT 10SM CLR 11/03 A2985 RMK AO2 SLP108 T01060028
Loading
Personal Weather Stations






























Interactive Weather Map New forecast layout! Learn more

10-Day Weather Forecast

Advertisements
Track Severe Weather on mobile